Saturday, February 13, 2016, 2:17 PM EST

KPTB, Petersburg, Dinwiddie County Airport

Location: Petersburg, VA, United States Lat: 37.183
Local Time: 2:17 PM EST (19:17 GMT) Lon: -77.517
Time Zone: US/Eastern Elev: 193 ft

Show me the last for .
Show Decoded

2016-02-13 13:55 METAR KPTB 131855Z AUTO 28008G15KT 260V320 10SM CLR 00/M26 A3026 RMK AO2
                 T10011263 =
2016-02-13 13:35 METAR KPTB 131835Z AUTO 29010G16KT 10SM CLR 00/M27 A3026 RMK AO2 T00001266 =
2016-02-13 13:15 METAR KPTB 131815Z AUTO 29013G24KT 10SM CLR 00/M27 A3026 RMK AO2 T00001272 =
2016-02-13 12:55 METAR KPTB 131755Z AUTO 29007G22KT 250V330 10SM CLR 00/M28 A3027 RMK AO2
                 T10051282 11002 21034 =
2016-02-13 12:35 METAR KPTB 131735Z AUTO 28010G25KT 230V320 10SM CLR M01/M29 A3028 RMK AO2
                 T10061288 =
2016-02-13 12:15 METAR KPTB 131715Z AUTO 31012G19KT 10SM CLR M01/M28 A3028 RMK AO2 T10081276 =
2016-02-13 11:55 METAR KPTB 131655Z AUTO 29015G24KT 10SM CLR M01/M27 A3029 RMK AO2 T10081270 =
2016-02-13 11:35 METAR KPTB 131635Z AUTO 28013G21KT 10SM CLR M01/M27 A3029 RMK AO2 T10091270 =
2016-02-13 11:15 METAR KPTB 131615Z AUTO 32011G22KT 10SM CLR M01/M26 A3029 RMK AO2 T10081257 =
2016-02-13 10:55 METAR KPTB 131555Z AUTO 32015G21KT 10SM CLR M01/M25 A3028 RMK AO2 T10121253 =
2016-02-13 10:35 METAR KPTB 131535Z AUTO 32017G21KT 10SM CLR M01/M26 A3028 RMK AO2 T10151257 =
2016-02-13 10:15 METAR KPTB 131515Z AUTO 32013G24KT 10SM CLR M02/M27 A3028 RMK AO2 T10181268 =
2016-02-13 09:55 METAR KPTB 131455Z AUTO 29014G21KT 10SM CLR M02/M25 A3027 RMK AO2 T10171255 =
2016-02-13 09:35 METAR KPTB 131435Z AUTO 33016G21KT 10SM CLR M02/M25 A3027 RMK AO2 T10191247 =
2016-02-13 09:15 METAR KPTB 131415Z AUTO 31014G17KT 10SM CLR M02/M23 A3027 RMK AO2 T10211233 =
2016-02-13 08:55 METAR KPTB 131355Z AUTO 32012G17KT 10SM CLR M02/M23 A3026 RMK AO2 T10241227 =
2016-02-13 08:35 METAR KPTB 131335Z AUTO 32007G17KT 290V350 10SM CLR M03/M23 A3025 RMK AO2
                 T10271226 =
2016-02-13 08:15 METAR KPTB 131315Z AUTO 32011G16KT 10SM CLR M03/M22 A3023 RMK AO2 T10301221 =
2016-02-13 07:55 METAR KPTB 131255Z AUTO 31013G20KT 10SM CLR M03/M22 A3022 RMK AO2 T10311218 =
2016-02-13 07:35 METAR KPTB 131235Z AUTO 33013G18KT 10SM CLR M03/M22 A3022 RMK AO2 T10341217 =
2016-02-13 07:15 METAR KPTB 131215Z AUTO 33015G19KT 10SM CLR M03/M21 A3021 RMK AO2 T10331210 =
2016-02-13 06:55 METAR KPTB 131155Z AUTO 33009G17KT 10SM CLR M03/M20 A3019 RMK AO2 T10301203
                 11016 21067 =
2016-02-13 06:35 METAR KPTB 131135Z AUTO 34012KT 10SM CLR M03/M19 A3018 RMK AO2 T10281190 =
2016-02-13 06:15 METAR KPTB 131115Z AUTO 31014G20KT 10SM SCT050 SCT075 M02/M17 A3016 RMK AO2
                 T10231175 =
2016-02-13 05:55 METAR KPTB 131055Z AUTO 34011G20KT 10SM SCT060 OVC075 M02/M14 A3014 RMK AO2
                 T10171139 =
2016-02-13 05:35 METAR KPTB 131035Z AUTO 31006KT 10SM SCT060 OVC070 M02/M14 A3011 RMK AO2
                 T10161136 =
2016-02-13 05:15 METAR KPTB 131015Z AUTO 31010KT 10SM BKN070 M02/M12 A3010 RMK AO2 T10191124 =
2016-02-13 04:55 METAR KPTB 130955Z AUTO 28004KT 10SM BKN070 BKN080 M03/M10 A3008 RMK AO2
                 T10331104 =
2016-02-13 04:35 METAR KPTB 130935Z AUTO 27003KT 10SM SCT060 OVC070 M05/M07 A3007 RMK AO2
                 T10491074 =
2016-02-13 04:15 METAR KPTB 130915Z AUTO 00000KT 10SM BKN070 OVC080 M06/M08 A3006 RMK AO2
                 T10601078 =
2016-02-13 03:55 METAR KPTB 130855Z AUTO 00000KT 10SM SCT060 SCT080 M07/M08 A3005 RMK AO2
                 T10661084 =
2016-02-13 03:35 METAR KPTB 130835Z AUTO 00000KT 10SM BKN080 M06/M08 A3004 RMK AO2 T10631080 =
2016-02-13 03:15 METAR KPTB 130815Z AUTO 00000KT 10SM BKN080 M06/M07 A3004 RMK AO2 T10611075 =
2016-02-13 02:55 METAR KPTB 130755Z AUTO 00000KT 10SM BKN080 M06/M07 A3003 RMK AO2 T10591071 =
2016-02-13 02:35 METAR KPTB 130735Z AUTO 24003KT 10SM OVC080 M06/M07 A3003 RMK AO2 T10581071 =
2016-02-13 02:15 METAR KPTB 130715Z AUTO 00000KT 10SM OVC070 M05/M07 A3002 RMK AO2 T10551067 =
2016-02-13 01:55 METAR KPTB 130655Z AUTO 00000KT 10SM SCT060 OVC070 M06/M07 A3002 RMK AO2
                 T10561068 =
2016-02-13 01:35 METAR KPTB 130635Z AUTO 00000KT 10SM SCT048 SCT060 BKN070 M05/M06 A3002 RMK AO2
                 T10501064 =
2016-02-13 01:15 METAR KPTB 130615Z AUTO 00000KT 10SM BKN060 BKN065 OVC075 M04/M07 A3002 RMK AO2
                 T10381066 =
2016-02-13 00:55 METAR KPTB 130555Z AUTO 00000KT 10SM SCT060 OVC075 M03/M06 A3002 RMK AO2
                 T10311063 11015 21054 =
2016-02-13 00:35 METAR KPTB 130535Z AUTO 00000KT 10SM OVC075 M03/M06 A3002 RMK AO2 T10291064 =
2016-02-13 00:15 METAR KPTB 130515Z AUTO 00000KT 10SM OVC065 M04/M06 A3001 RMK AO2 T10381060 =
2016-02-12 23:55 METAR KPTB 130455Z AUTO 00000KT 10SM OVC065 M04/M06 A3002 RMK AO2 T10441060
                 400021090 =
2016-02-12 23:35 METAR KPTB 130435Z AUTO 00000KT 10SM BKN065 M05/M07 A3002 RMK AO2 T10541069 =
2016-02-12 23:15 METAR KPTB 130415Z AUTO 00000KT 10SM SCT065 M05/M07 A3001 RMK AO2 T10501066 =
2016-02-12 22:55 METAR KPTB 130355Z AUTO 00000KT 10SM SCT070 M04/M08 A3001 RMK AO2 T10441077 =
2016-02-12 22:35 METAR KPTB 130335Z AUTO 00000KT 10SM OVC070 M03/M07 A3001 RMK AO2 T10301074 =
2016-02-12 22:15 METAR KPTB 130315Z AUTO 00000KT 10SM OVC070 M02/M07 A3001 RMK AO2 T10231075 =
2016-02-12 21:55 METAR KPTB 130255Z AUTO 00000KT 10SM OVC070 M02/M07 A3001 RMK AO2 T10231071 =
2016-02-12 21:35 METAR KPTB 130235Z AUTO 00000KT 10SM OVC080 M02/M07 A3001 RMK AO2 T10251073 =
2016-02-12 21:15 METAR KPTB 130215Z AUTO 20003KT 10SM OVC080 M03/M07 A3000 RMK AO2 T10271075 =
2016-02-12 20:55 METAR KPTB 130155Z AUTO 00000KT 10SM BKN090 M02/M08 A3001 RMK AO2 T10251076 =
2016-02-12 20:35 METAR KPTB 130135Z AUTO 21003KT 10SM SCT049 BKN090 M02/M08 A3001 RMK AO2
                 T10251076 =
2016-02-12 20:15 METAR KPTB 130115Z AUTO 23005KT 10SM BKN049 OVC090 M02/M07 A3002 RMK AO2
                 T10201075 =
2016-02-12 19:55 METAR KPTB 130055Z AUTO 22006KT 10SM OVC090 M02/M08 A3002 RMK AO2 T10161076 =
2016-02-12 19:35 METAR KPTB 130035Z AUTO 20004KT 10SM SCT060 OVC090 M01/M08 A3001 RMK AO2
                 T10151076 =
2016-02-12 19:15 METAR KPTB 130015Z AUTO 20004KT 10SM OVC060 M01/M08 A3002 RMK AO2 T10151077 =
2016-02-12 18:55 METAR KPTB 122355Z AUTO 19003KT 10SM OVC060 M01/M08 A3003 RMK AO2 T10151078
                 10002 21017 =
2016-02-12 18:35 METAR KPTB 122335Z AUTO 20004KT 10SM SCT036 OVC060 M01/M08 A3002 RMK AO2
                 T10151079 =
2016-02-12 18:15 METAR KPTB 122315Z AUTO 00000KT 10SM OVC036 M01/M08 A3003 RMK AO2 T10151076 =
2016-02-12 17:55 METAR KPTB 122255Z AUTO 24003KT 10SM OVC034 M01/M08 A3005 RMK AO2 T10151076 =
2016-02-12 17:35 METAR KPTB 122235Z AUTO 23003KT 10SM BKN032 OVC048 M02/M08 A3004 RMK AO2
                 T10161079 =
2016-02-12 17:15 METAR KPTB 122215Z AUTO 19003KT 10SM SCT035 BKN050 OVC065 M02/M08 A3003 RMK AO2
                 T10161082 =
2016-02-12 16:55 METAR KPTB 122155Z AUTO 18004KT 10SM SCT038 OVC065 M01/M08 A3003 RMK AO2
                 T10131082 =
2016-02-12 16:35 METAR KPTB 122135Z AUTO 20005KT 10SM BKN060 OVC075 M01/M09 A3004 RMK AO2
                 T10131089 =
2016-02-12 16:15 METAR KPTB 122115Z AUTO 18005KT 10SM SCT035 OVC060 M01/M09 A3005 RMK AO2
                 T10111094 =
2016-02-12 15:55 METAR KPTB 122055Z AUTO 17005KT 10SM SCT035 SCT055 OVC070 M01/M10 A3006 RMK AO2
                 T10091101 =
2016-02-12 15:35 METAR KPTB 122035Z AUTO 20004KT 10SM SCT050 OVC070 M01/M11 A3007 RMK AO2
                 T10071108 =
2016-02-12 15:15 METAR KPTB 122015Z AUTO 22004KT 10SM BKN048 BKN055 OVC090 M01/M11 A3008 RMK AO2
                 T10061110 =
2016-02-12 14:55 METAR KPTB 121955Z AUTO 27003KT 7SM SCT048 BKN055 OVC065 M01/M13 A3009 RMK AO2
                 T10061127 =
2016-02-12 14:35 METAR KPTB 121935Z AUTO 00000KT 10SM SCT037 SCT045 OVC055 00/M15 A3010 RMK AO2
                 T10041147 =

Support USWX by starting your Amazon purchase here.